sensor_id;sensor_type;location;lat;lon;timestamp;P1;durP1;ratioP1;P2;durP2;ratioP2
44578;SDS011;37422;51.402;0.016;2022-12-18T00:01:59;61.33;;;28.73;;
44578;SDS011;37422;51.402;0.016;2022-12-18T00:04:27;63.72;;;28.25;;
44578;SDS011;37422;51.402;0.016;2022-12-18T00:06:57;64.20;;;29.10;;
44578;SDS011;37422;51.402;0.016;2022-12-18T00:09:30;58.38;;;25.48;;
44578;SDS011;37422;51.402;0.016;2022-12-18T00:12:06;58.50;;;26.00;;
44578;SDS011;37422;51.402;0.016;2022-12-18T00:14:47;61.33;;;28.55;;
44578;SDS011;37422;51.402;0.016;2022-12-18T00:17:16;61.92;;;27.42;;
44578;SDS011;37422;51.402;0.016;2022-12-18T00:19:49;71.35;;;30.00;;
44578;SDS011;37422;51.402;0.016;2022-12-18T00:22:18;64.00;;;28.58;;
44578;SDS011;37422;51.402;0.016;2022-12-18T00:24:46;59.80;;;28.27;;
44578;SDS011;37422;51.402;0.016;2022-12-18T00:27:23;55.58;;;25.00;;
44578;SDS011;37422;51.402;0.016;2022-12-18T00:29:57;54.80;;;24.70;;
44578;SDS011;37422;51.402;0.016;2022-12-18T00:32:25;56.05;;;26.63;;
44578;SDS011;37422;51.402;0.016;2022-12-18T00:34:59;56.20;;;26.67;;
44578;SDS011;37422;51.402;0.016;2022-12-18T00:37:28;60.58;;;27.50;;
44578;SDS011;37422;51.402;0.016;2022-12-18T00:40:00;61.72;;;27.73;;
44578;SDS011;37422;51.402;0.016;2022-12-18T00:42:36;57.97;;;27.02;;
44578;SDS011;37422;51.402;0.016;2022-12-18T00:45:41;56.67;;;26.65;;
44578;SDS011;37422;51.402;0.016;2022-12-18T00:50:42;58.97;;;25.75;;
44578;SDS011;37422;51.402;0.016;2022-12-18T00:53:23;55.17;;;26.08;;
44578;SDS011;37422;51.402;0.016;2022-12-18T00:55:51;59.20;;;25.05;;
44578;SDS011;37422;51.402;0.016;2022-12-18T00:58:18;58.78;;;24.05;;
44578;SDS011;37422;51.402;0.016;2022-12-18T01:00:47;62.38;;;27.05;;
44578;SDS011;37422;51.402;0.016;2022-12-18T01:03:18;64.82;;;26.90;;
44578;SDS011;37422;51.402;0.016;2022-12-18T01:05:52;55.35;;;26.02;;
44578;SDS011;37422;51.402;0.016;2022-12-18T01:08:32;59.47;;;26.23;;
44578;SDS011;37422;51.402;0.016;2022-12-18T01:11:10;51.50;;;24.55;;
44578;SDS011;37422;51.402;0.016;2022-12-18T01:13:44;58.22;;;26.25;;
44578;SDS011;37422;51.402;0.016;2022-12-18T01:16:13;58.28;;;27.25;;
44578;SDS011;37422;51.402;0.016;2022-12-18T01:18:45;74.63;;;26.17;;
44578;SDS011;37422;51.402;0.016;2022-12-18T01:21:19;52.75;;;24.63;;
44578;SDS011;37422;51.402;0.016;2022-12-18T01:23:50;57.55;;;27.77;;
44578;SDS011;37422;51.402;0.016;2022-12-18T01:26:20;61.75;;;25.92;;
44578;SDS011;37422;51.402;0.016;2022-12-18T01:28:48;54.30;;;24.95;;
44578;SDS011;37422;51.402;0.016;2022-12-18T01:31:21;55.53;;;24.92;;
44578;SDS011;37422;51.402;0.016;2022-12-18T01:33:57;56.35;;;22.95;;
44578;SDS011;37422;51.402;0.016;2022-12-18T01:36:35;52.63;;;24.80;;
44578;SDS011;37422;51.402;0.016;2022-12-18T01:39:06;51.95;;;25.60;;
44578;SDS011;37422;51.402;0.016;2022-12-18T01:41:41;52.42;;;23.35;;
44578;SDS011;37422;51.402;0.016;2022-12-18T01:52:46;52.70;;;23.05;;
44578;SDS011;37422;51.402;0.016;2022-12-18T01:55:28;56.53;;;25.05;;
44578;SDS011;37422;51.402;0.016;2022-12-18T01:58:07;61.90;;;25.07;;
44578;SDS011;37422;51.402;0.016;2022-12-18T02:00:35;57.15;;;25.00;;
44578;SDS011;37422;51.402;0.016;2022-12-18T02:03:03;56.13;;;24.15;;
44578;SDS011;37422;51.402;0.016;2022-12-18T02:11:44;54.75;;;25.20;;
44578;SDS011;37422;51.402;0.016;2022-12-18T02:14:29;48.70;;;23.30;;
44578;SDS011;37422;51.402;0.016;2022-12-18T02:17:11;53.10;;;22.95;;
44578;SDS011;37422;51.402;0.016;2022-12-18T02:20:03;49.75;;;22.55;;
44578;SDS011;37422;51.402;0.016;2022-12-18T02:29:01;51.35;;;21.45;;
44578;SDS011;37422;51.402;0.016;2022-12-18T02:31:40;51.38;;;23.50;;
44578;SDS011;37422;51.402;0.016;2022-12-18T02:34:16;49.22;;;22.80;;
44578;SDS011;37422;51.402;0.016;2022-12-18T02:36:46;49.97;;;22.25;;
44578;SDS011;37422;51.402;0.016;2022-12-18T02:39:23;51.50;;;21.30;;
44578;SDS011;37422;51.402;0.016;2022-12-18T02:42:03;55.30;;;25.00;;
44578;SDS011;37422;51.402;0.016;2022-12-18T02:44:41;50.95;;;22.73;;
44578;SDS011;37422;51.402;0.016;2022-12-18T02:47:23;50.78;;;23.52;;
44578;SDS011;37422;51.402;0.016;2022-12-18T02:58:53;50.83;;;22.70;;
44578;SDS011;37422;51.402;0.016;2022-12-18T03:07:08;48.65;;;20.95;;
44578;SDS011;37422;51.402;0.016;2022-12-18T03:09:44;52.63;;;22.15;;
44578;SDS011;37422;51.402;0.016;2022-12-18T03:12:20;45.13;;;20.15;;
44578;SDS011;37422;51.402;0.016;2022-12-18T03:15:02;49.33;;;22.15;;
44578;SDS011;37422;51.402;0.016;2022-12-18T03:17:38;45.97;;;20.88;;
44578;SDS011;37422;51.402;0.016;2022-12-18T03:20:12;51.47;;;21.00;;
44578;SDS011;37422;51.402;0.016;2022-12-18T03:22:45;49.63;;;21.83;;
44578;SDS011;37422;51.402;0.016;2022-12-18T03:25:22;43.58;;;18.48;;
44578;SDS011;37422;51.402;0.016;2022-12-18T03:27:58;52.30;;;19.75;;
44578;SDS011;37422;51.402;0.016;2022-12-18T03:30:29;45.70;;;20.45;;
44578;SDS011;37422;51.402;0.016;2022-12-18T03:33:13;48.13;;;19.38;;
44578;SDS011;37422;51.402;0.016;2022-12-18T03:36:13;42.25;;;19.52;;
44578;SDS011;37422;51.402;0.016;2022-12-18T03:38:42;46.85;;;20.50;;
44578;SDS011;37422;51.402;0.016;2022-12-18T03:44:26;41.15;;;18.75;;
44578;SDS011;37422;51.402;0.016;2022-12-18T03:50:53;49.15;;;20.60;;
44578;SDS011;37422;51.402;0.016;2022-12-18T03:56:22;39.88;;;19.65;;
44578;SDS011;37422;51.402;0.016;2022-12-18T03:58:55;37.00;;;18.58;;
44578;SDS011;37422;51.402;0.016;2022-12-18T04:01:31;43.45;;;19.85;;
44578;SDS011;37422;51.402;0.016;2022-12-18T04:04:19;43.17;;;18.40;;
44578;SDS011;37422;51.402;0.016;2022-12-18T04:06:53;40.13;;;18.23;;
44578;SDS011;37422;51.402;0.016;2022-12-18T04:09:23;43.45;;;20.92;;
44578;SDS011;37422;51.402;0.016;2022-12-18T04:11:53;45.47;;;19.13;;
44578;SDS011;37422;51.402;0.016;2022-12-18T04:14:23;43.47;;;16.90;;
44578;SDS011;37422;51.402;0.016;2022-12-18T04:17:08;41.75;;;18.33;;
44578;SDS011;37422;51.402;0.016;2022-12-18T04:19:41;45.10;;;18.05;;
44578;SDS011;37422;51.402;0.016;2022-12-18T04:22:15;45.13;;;17.75;;
44578;SDS011;37422;51.402;0.016;2022-12-18T04:25:06;47.05;;;20.17;;
44578;SDS011;37422;51.402;0.016;2022-12-18T04:27:39;46.58;;;21.05;;
44578;SDS011;37422;51.402;0.016;2022-12-18T04:30:12;40.60;;;19.20;;
44578;SDS011;37422;51.402;0.016;2022-12-18T04:32:41;40.35;;;19.40;;
44578;SDS011;37422;51.402;0.016;2022-12-18T04:35:15;44.40;;;20.50;;
44578;SDS011;37422;51.402;0.016;2022-12-18T04:37:46;40.40;;;17.73;;
44578;SDS011;37422;51.402;0.016;2022-12-18T04:40:16;46.88;;;21.45;;
44578;SDS011;37422;51.402;0.016;2022-12-18T04:42:46;43.75;;;19.25;;
44578;SDS011;37422;51.402;0.016;2022-12-18T04:45:17;46.38;;;18.38;;
44578;SDS011;37422;51.402;0.016;2022-12-18T04:47:45;44.75;;;21.90;;
44578;SDS011;37422;51.402;0.016;2022-12-18T04:50:14;43.78;;;20.05;;
44578;SDS011;37422;51.402;0.016;2022-12-18T04:52:45;45.92;;;20.02;;
44578;SDS011;37422;51.402;0.016;2022-12-18T04:55:13;48.70;;;20.60;;
44578;SDS011;37422;51.402;0.016;2022-12-18T04:57:41;44.78;;;21.65;;
44578;SDS011;37422;51.402;0.016;2022-12-18T05:00:12;47.30;;;21.20;;
44578;SDS011;37422;51.402;0.016;2022-12-18T05:02:40;50.28;;;20.88;;
44578;SDS011;37422;51.402;0.016;2022-12-18T05:05:12;43.28;;;20.48;;
44578;SDS011;37422;51.402;0.016;2022-12-18T05:07:40;45.28;;;20.02;;
44578;SDS011;37422;51.402;0.016;2022-12-18T05:10:12;50.33;;;22.33;;
44578;SDS011;37422;51.402;0.016;2022-12-18T05:12:45;45.22;;;20.45;;
44578;SDS011;37422;51.402;0.016;2022-12-18T05:15:30;48.55;;;20.58;;
44578;SDS011;37422;51.402;0.016;2022-12-18T05:18:02;47.38;;;22.27;;
44578;SDS011;37422;51.402;0.016;2022-12-18T05:20:32;43.80;;;19.05;;
44578;SDS011;37422;51.402;0.016;2022-12-18T05:23:02;42.15;;;20.30;;
44578;SDS011;37422;51.402;0.016;2022-12-18T05:25:31;40.20;;;19.35;;
44578;SDS011;37422;51.402;0.016;2022-12-18T05:28:04;48.60;;;21.10;;
44578;SDS011;37422;51.402;0.016;2022-12-18T05:30:33;44.60;;;21.17;;
44578;SDS011;37422;51.402;0.016;2022-12-18T05:33:04;46.83;;;22.35;;
44578;SDS011;37422;51.402;0.016;2022-12-18T05:35:33;43.05;;;21.90;;
44578;SDS011;37422;51.402;0.016;2022-12-18T05:38:02;52.13;;;21.95;;
44578;SDS011;37422;51.402;0.016;2022-12-18T05:40:30;42.75;;;19.05;;
44578;SDS011;37422;51.402;0.016;2022-12-18T05:42:59;40.65;;;23.33;;
44578;SDS011;37422;51.402;0.016;2022-12-18T05:45:32;44.65;;;23.50;;
44578;SDS011;37422;51.402;0.016;2022-12-18T05:48:08;47.40;;;23.85;;
44578;SDS011;37422;51.402;0.016;2022-12-18T05:50:37;49.15;;;19.83;;
44578;SDS011;37422;51.402;0.016;2022-12-18T05:53:27;41.65;;;20.00;;
44578;SDS011;37422;51.402;0.016;2022-12-18T05:56:04;43.55;;;19.70;;
44578;SDS011;37422;51.402;0.016;2022-12-18T05:58:38;46.58;;;21.88;;
44578;SDS011;37422;51.402;0.016;2022-12-18T06:01:34;45.13;;;20.33;;
44578;SDS011;37422;51.402;0.016;2022-12-18T06:04:02;37.00;;;17.67;;
44578;SDS011;37422;51.402;0.016;2022-12-18T06:06:37;39.03;;;19.33;;
44578;SDS011;37422;51.402;0.016;2022-12-18T06:09:05;41.80;;;20.75;;
44578;SDS011;37422;51.402;0.016;2022-12-18T06:14:14;38.50;;;20.35;;
44578;SDS011;37422;51.402;0.016;2022-12-18T06:16:44;41.92;;;21.13;;
44578;SDS011;37422;51.402;0.016;2022-12-18T06:19:17;46.42;;;22.10;;
44578;SDS011;37422;51.402;0.016;2022-12-18T06:21:48;43.92;;;23.27;;
44578;SDS011;37422;51.402;0.016;2022-12-18T06:24:30;47.70;;;21.90;;
44578;SDS011;37422;51.402;0.016;2022-12-18T06:27:00;44.45;;;21.90;;
44578;SDS011;37422;51.402;0.016;2022-12-18T06:29:29;42.35;;;22.05;;
44578;SDS011;37422;51.402;0.016;2022-12-18T06:32:07;45.63;;;23.50;;
44578;SDS011;37422;51.402;0.016;2022-12-18T06:34:38;42.45;;;21.10;;
44578;SDS011;37422;51.402;0.016;2022-12-18T06:37:06;47.65;;;21.73;;
44578;SDS011;37422;51.402;0.016;2022-12-18T06:39:34;40.35;;;18.95;;
44578;SDS011;37422;51.402;0.016;2022-12-18T06:42:06;42.75;;;21.90;;
44578;SDS011;37422;51.402;0.016;2022-12-18T06:44:34;47.33;;;21.52;;
44578;SDS011;37422;51.402;0.016;2022-12-18T06:47:08;41.70;;;20.40;;
44578;SDS011;37422;51.402;0.016;2022-12-18T06:49:40;39.47;;;19.42;;
44578;SDS011;37422;51.402;0.016;2022-12-18T06:52:08;43.97;;;23.42;;
44578;SDS011;37422;51.402;0.016;2022-12-18T06:54:36;44.78;;;21.90;;
44578;SDS011;37422;51.402;0.016;2022-12-18T06:57:10;44.95;;;21.23;;
44578;SDS011;37422;51.402;0.016;2022-12-18T06:59:48;43.28;;;19.50;;
44578;SDS011;37422;51.402;0.016;2022-12-18T07:02:16;40.25;;;19.90;;
44578;SDS011;37422;51.402;0.016;2022-12-18T07:04:47;42.47;;;19.33;;
44578;SDS011;37422;51.402;0.016;2022-12-18T07:07:24;37.30;;;18.00;;
44578;SDS011;37422;51.402;0.016;2022-12-18T07:09:55;47.90;;;21.77;;
44578;SDS011;37422;51.402;0.016;2022-12-18T07:12:23;44.72;;;19.05;;
44578;SDS011;37422;51.402;0.016;2022-12-18T07:14:54;45.63;;;20.80;;
44578;SDS011;37422;51.402;0.016;2022-12-18T07:17:23;41.72;;;19.27;;
44578;SDS011;37422;51.402;0.016;2022-12-18T07:19:54;42.05;;;20.48;;
44578;SDS011;37422;51.402;0.016;2022-12-18T07:22:25;43.63;;;20.80;;
44578;SDS011;37422;51.402;0.016;2022-12-18T07:24:53;45.13;;;20.10;;
44578;SDS011;37422;51.402;0.016;2022-12-18T07:27:32;44.53;;;19.15;;
44578;SDS011;37422;51.402;0.016;2022-12-18T07:30:08;44.67;;;20.88;;
44578;SDS011;37422;51.402;0.016;2022-12-18T07:32:39;45.20;;;18.50;;
44578;SDS011;37422;51.402;0.016;2022-12-18T07:35:18;45.88;;;20.73;;
44578;SDS011;37422;51.402;0.016;2022-12-18T07:37:51;42.90;;;20.88;;
44578;SDS011;37422;51.402;0.016;2022-12-18T07:40:23;42.88;;;19.25;;
44578;SDS011;37422;51.402;0.016;2022-12-18T07:42:51;38.60;;;19.60;;
44578;SDS011;37422;51.402;0.016;2022-12-18T07:45:27;43.22;;;19.85;;
44578;SDS011;37422;51.402;0.016;2022-12-18T07:48:04;35.65;;;17.60;;
44578;SDS011;37422;51.402;0.016;2022-12-18T07:50:38;41.75;;;19.65;;
44578;SDS011;37422;51.402;0.016;2022-12-18T07:53:08;40.37;;;18.63;;
44578;SDS011;37422;51.402;0.016;2022-12-18T07:55:36;44.28;;;20.15;;
44578;SDS011;37422;51.402;0.016;2022-12-18T07:58:32;42.05;;;19.85;;
44578;SDS011;37422;51.402;0.016;2022-12-18T08:01:15;45.10;;;20.38;;
44578;SDS011;37422;51.402;0.016;2022-12-18T08:03:48;43.22;;;21.55;;
44578;SDS011;37422;51.402;0.016;2022-12-18T08:06:25;42.05;;;19.88;;
44578;SDS011;37422;51.402;0.016;2022-12-18T08:08:53;41.05;;;21.08;;
44578;SDS011;37422;51.402;0.016;2022-12-18T08:11:24;44.60;;;22.77;;
44578;SDS011;37422;51.402;0.016;2022-12-18T08:14:08;42.90;;;20.63;;
44578;SDS011;37422;51.402;0.016;2022-12-18T08:16:44;38.45;;;20.60;;
44578;SDS011;37422;51.402;0.016;2022-12-18T08:19:20;49.40;;;22.08;;
44578;SDS011;37422;51.402;0.016;2022-12-18T08:21:58;42.30;;;20.75;;
44578;SDS011;37422;51.402;0.016;2022-12-18T08:24:28;44.65;;;20.35;;
44578;SDS011;37422;51.402;0.016;2022-12-18T08:27:00;42.20;;;20.63;;
44578;SDS011;37422;51.402;0.016;2022-12-18T08:29:49;46.10;;;20.50;;
44578;SDS011;37422;51.402;0.016;2022-12-18T08:32:16;40.58;;;19.92;;
44578;SDS011;37422;51.402;0.016;2022-12-18T08:34:45;40.22;;;22.02;;
44578;SDS011;37422;51.402;0.016;2022-12-18T08:37:13;41.28;;;23.02;;
44578;SDS011;37422;51.402;0.016;2022-12-18T08:39:45;45.60;;;20.95;;
44578;SDS011;37422;51.402;0.016;2022-12-18T08:42:12;38.28;;;20.27;;
44578;SDS011;37422;51.402;0.016;2022-12-18T08:47:36;40.50;;;19.83;;
44578;SDS011;37422;51.402;0.016;2022-12-18T08:50:13;43.15;;;20.55;;
44578;SDS011;37422;51.402;0.016;2022-12-18T08:52:43;39.22;;;20.45;;
44578;SDS011;37422;51.402;0.016;2022-12-18T08:55:11;40.28;;;21.27;;
44578;SDS011;37422;51.402;0.016;2022-12-18T08:57:39;44.35;;;22.63;;
44578;SDS011;37422;51.402;0.016;2022-12-18T09:00:09;42.17;;;21.17;;
44578;SDS011;37422;51.402;0.016;2022-12-18T09:02:41;40.53;;;20.70;;
44578;SDS011;37422;51.402;0.016;2022-12-18T09:05:16;44.38;;;20.85;;
44578;SDS011;37422;51.402;0.016;2022-12-18T09:07:47;42.80;;;19.80;;
44578;SDS011;37422;51.402;0.016;2022-12-18T09:13:46;39.05;;;17.40;;
44578;SDS011;37422;51.402;0.016;2022-12-18T09:16:16;42.78;;;20.92;;
44578;SDS011;37422;51.402;0.016;2022-12-18T09:19:03;37.00;;;18.52;;
44578;SDS011;37422;51.402;0.016;2022-12-18T09:21:40;38.90;;;22.17;;
44578;SDS011;37422;51.402;0.016;2022-12-18T09:24:38;43.67;;;19.48;;
44578;SDS011;37422;51.402;0.016;2022-12-18T09:27:07;44.88;;;19.02;;
44578;SDS011;37422;51.402;0.016;2022-12-18T09:29:36;38.60;;;20.33;;
44578;SDS011;37422;51.402;0.016;2022-12-18T09:32:07;40.88;;;19.77;;
44578;SDS011;37422;51.402;0.016;2022-12-18T09:34:35;40.22;;;20.60;;
44578;SDS011;37422;51.402;0.016;2022-12-18T09:37:05;40.58;;;21.55;;
44578;SDS011;37422;51.402;0.016;2022-12-18T09:39:35;44.15;;;22.00;;
44578;SDS011;37422;51.402;0.016;2022-12-18T09:42:13;43.53;;;20.20;;
44578;SDS011;37422;51.402;0.016;2022-12-18T09:44:52;43.90;;;21.35;;
44578;SDS011;37422;51.402;0.016;2022-12-18T09:47:36;38.22;;;19.42;;
44578;SDS011;37422;51.402;0.016;2022-12-18T09:52:45;37.60;;;19.52;;
44578;SDS011;37422;51.402;0.016;2022-12-18T09:58:06;39.70;;;21.73;;
44578;SDS011;37422;51.402;0.016;2022-12-18T10:00:41;38.25;;;18.10;;
44578;SDS011;37422;51.402;0.016;2022-12-18T10:03:10;38.22;;;19.35;;
44578;SDS011;37422;51.402;0.016;2022-12-18T10:08:40;39.00;;;18.90;;
44578;SDS011;37422;51.402;0.016;2022-12-18T10:11:22;33.30;;;17.98;;
44578;SDS011;37422;51.402;0.016;2022-12-18T10:19:58;41.42;;;19.15;;
44578;SDS011;37422;51.402;0.016;2022-12-18T10:22:41;37.75;;;20.63;;
44578;SDS011;37422;51.402;0.016;2022-12-18T10:25:25;36.92;;;19.38;;
44578;SDS011;37422;51.402;0.016;2022-12-18T10:27:58;41.00;;;19.95;;
44578;SDS011;37422;51.402;0.016;2022-12-18T10:30:35;44.25;;;20.88;;
44578;SDS011;37422;51.402;0.016;2022-12-18T10:33:12;37.78;;;17.75;;
44578;SDS011;37422;51.402;0.016;2022-12-18T10:35:43;38.22;;;18.45;;
44578;SDS011;37422;51.402;0.016;2022-12-18T10:38:23;35.88;;;18.40;;
44578;SDS011;37422;51.402;0.016;2022-12-18T10:40:56;37.00;;;19.70;;
44578;SDS011;37422;51.402;0.016;2022-12-18T10:46:18;36.20;;;19.83;;
44578;SDS011;37422;51.402;0.016;2022-12-18T10:48:50;37.15;;;18.08;;
44578;SDS011;37422;51.402;0.016;2022-12-18T10:51:24;33.70;;;16.25;;
44578;SDS011;37422;51.402;0.016;2022-12-18T10:54:05;35.38;;;18.45;;
44578;SDS011;37422;51.402;0.016;2022-12-18T10:56:40;41.55;;;20.70;;
44578;SDS011;37422;51.402;0.016;2022-12-18T10:59:11;34.90;;;17.80;;
44578;SDS011;37422;51.402;0.016;2022-12-18T11:04:17;32.33;;;17.27;;
44578;SDS011;37422;51.402;0.016;2022-12-18T11:06:57;37.45;;;18.50;;
44578;SDS011;37422;51.402;0.016;2022-12-18T11:09:33;40.20;;;16.40;;
44578;SDS011;37422;51.402;0.016;2022-12-18T11:17:20;34.28;;;17.38;;
44578;SDS011;37422;51.402;0.016;2022-12-18T11:20:38;32.38;;;19.30;;
44578;SDS011;37422;51.402;0.016;2022-12-18T11:23:01;35.15;;;19.45;;
44578;SDS011;37422;51.402;0.016;2022-12-18T11:25:34;33.50;;;18.73;;
44578;SDS011;37422;51.402;0.016;2022-12-18T11:33:42;38.38;;;19.88;;
44578;SDS011;37422;51.402;0.016;2022-12-18T11:36:36;39.33;;;20.85;;
44578;SDS011;37422;51.402;0.016;2022-12-18T11:39:17;37.63;;;21.30;;
44578;SDS011;37422;51.402;0.016;2022-12-18T11:44:38;43.00;;;21.92;;
44578;SDS011;37422;51.402;0.016;2022-12-18T11:47:13;47.70;;;23.60;;
44578;SDS011;37422;51.402;0.016;2022-12-18T11:49:42;37.75;;;19.17;;
44578;SDS011;37422;51.402;0.016;2022-12-18T11:54:50;44.53;;;22.02;;
44578;SDS011;37422;51.402;0.016;2022-12-18T11:57:38;41.33;;;19.92;;
44578;SDS011;37422;51.402;0.016;2022-12-18T12:00:22;38.78;;;20.98;;
44578;SDS011;37422;51.402;0.016;2022-12-18T12:14:29;39.97;;;20.10;;
44578;SDS011;37422;51.402;0.016;2022-12-18T12:26:06;38.17;;;18.95;;
44578;SDS011;37422;51.402;0.016;2022-12-18T12:28:59;38.00;;;18.40;;
44578;SDS011;37422;51.402;0.016;2022-12-18T12:40:42;37.90;;;20.23;;
44578;SDS011;37422;51.402;0.016;2022-12-18T12:43:44;41.05;;;21.08;;
44578;SDS011;37422;51.402;0.016;2022-12-18T12:46:18;42.72;;;18.42;;
44578;SDS011;37422;51.402;0.016;2022-12-18T12:49:04;45.45;;;23.58;;
44578;SDS011;37422;51.402;0.016;2022-12-18T12:51:41;39.17;;;18.42;;
44578;SDS011;37422;51.402;0.016;2022-12-18T12:54:17;41.22;;;21.88;;
44578;SDS011;37422;51.402;0.016;2022-12-18T12:56:54;40.78;;;20.85;;
44578;SDS011;37422;51.402;0.016;2022-12-18T13:05:29;40.13;;;23.52;;
44578;SDS011;37422;51.402;0.016;2022-12-18T13:11:14;40.90;;;22.27;;
44578;SDS011;37422;51.402;0.016;2022-12-18T13:17:14;36.22;;;18.95;;
44578;SDS011;37422;51.402;0.016;2022-12-18T13:19:51;41.13;;;21.20;;
44578;SDS011;37422;51.402;0.016;2022-12-18T13:22:38;36.85;;;20.75;;
44578;SDS011;37422;51.402;0.016;2022-12-18T13:28:06;35.15;;;17.17;;
44578;SDS011;37422;51.402;0.016;2022-12-18T13:44:40;31.13;;;15.13;;
44578;SDS011;37422;51.402;0.016;2022-12-18T13:48:23;31.73;;;16.35;;
44578;SDS011;37422;51.402;0.016;2022-12-18T13:51:09;32.08;;;15.60;;
44578;SDS011;37422;51.402;0.016;2022-12-18T14:14:40;34.15;;;15.85;;
44578;SDS011;37422;51.402;0.016;2022-12-18T14:21:54;27.27;;;12.65;;
44578;SDS011;37422;51.402;0.016;2022-12-18T14:27:45;30.90;;;16.30;;
44578;SDS011;37422;51.402;0.016;2022-12-18T14:32:16;32.85;;;14.75;;
44578;SDS011;37422;51.402;0.016;2022-12-18T14:36:00;35.33;;;16.67;;
44578;SDS011;37422;51.402;0.016;2022-12-18T14:39:13;27.27;;;13.95;;
44578;SDS011;37422;51.402;0.016;2022-12-18T14:42:04;28.90;;;15.25;;
44578;SDS011;37422;51.402;0.016;2022-12-18T14:48:19;31.30;;;13.57;;
44578;SDS011;37422;51.402;0.016;2022-12-18T14:51:32;32.05;;;14.93;;
44578;SDS011;37422;51.402;0.016;2022-12-18T14:54:15;30.17;;;13.98;;
44578;SDS011;37422;51.402;0.016;2022-12-18T14:57:43;27.52;;;13.57;;
44578;SDS011;37422;51.402;0.016;2022-12-18T15:04:25;30.45;;;15.27;;
44578;SDS011;37422;51.402;0.016;2022-12-18T15:07:50;26.80;;;11.95;;
44578;SDS011;37422;51.402;0.016;2022-12-18T15:14:38;22.50;;;11.15;;
44578;SDS011;37422;51.402;0.016;2022-12-18T15:17:19;25.67;;;12.90;;
44578;SDS011;37422;51.402;0.016;2022-12-18T15:23:32;26.90;;;13.05;;
44578;SDS011;37422;51.402;0.016;2022-12-18T15:26:07;28.08;;;13.25;;
44578;SDS011;37422;51.402;0.016;2022-12-18T15:29:19;25.77;;;12.07;;
44578;SDS011;37422;51.402;0.016;2022-12-18T15:32:00;27.23;;;13.45;;
44578;SDS011;37422;51.402;0.016;2022-12-18T15:34:39;25.02;;;11.32;;
44578;SDS011;37422;51.402;0.016;2022-12-18T15:37:11;26.83;;;12.63;;
44578;SDS011;37422;51.402;0.016;2022-12-18T15:39:39;27.08;;;13.05;;
44578;SDS011;37422;51.402;0.016;2022-12-18T15:42:17;28.77;;;12.98;;
44578;SDS011;37422;51.402;0.016;2022-12-18T15:45:11;25.65;;;12.18;;
44578;SDS011;37422;51.402;0.016;2022-12-18T15:48:23;25.60;;;12.40;;
44578;SDS011;37422;51.402;0.016;2022-12-18T15:50:59;23.15;;;10.70;;
44578;SDS011;37422;51.402;0.016;2022-12-18T15:54:32;29.08;;;11.65;;
44578;SDS011;37422;51.402;0.016;2022-12-18T15:57:49;24.30;;;11.32;;
44578;SDS011;37422;51.402;0.016;2022-12-18T16:00:42;23.42;;;10.60;;
44578;SDS011;37422;51.402;0.016;2022-12-18T16:07:04;20.35;;;9.15;;
44578;SDS011;37422;51.402;0.016;2022-12-18T16:09:51;17.75;;;8.93;;
44578;SDS011;37422;51.402;0.016;2022-12-18T16:12:34;22.98;;;10.15;;
44578;SDS011;37422;51.402;0.016;2022-12-18T16:15:40;21.08;;;9.60;;
44578;SDS011;37422;51.402;0.016;2022-12-18T16:35:15;12.40;;;5.50;;
44578;SDS011;37422;51.402;0.016;2022-12-18T16:38:37;14.38;;;5.68;;
44578;SDS011;37422;51.402;0.016;2022-12-18T17:17:02;12.30;;;5.28;;
44578;SDS011;37422;51.402;0.016;2022-12-18T17:25:31;14.48;;;6.82;;
44578;SDS011;37422;51.402;0.016;2022-12-18T17:46:42;10.85;;;5.70;;
44578;SDS011;37422;51.402;0.016;2022-12-18T17:52:44;12.73;;;5.20;;
44578;SDS011;37422;51.402;0.016;2022-12-18T17:55:44;12.40;;;5.47;;
44578;SDS011;37422;51.402;0.016;2022-12-18T18:04:40;8.25;;;4.55;;
44578;SDS011;37422;51.402;0.016;2022-12-18T18:21:36;12.60;;;5.00;;
44578;SDS011;37422;51.402;0.016;2022-12-18T18:25:10;10.27;;;5.43;;
44578;SDS011;37422;51.402;0.016;2022-12-18T18:28:04;9.45;;;5.03;;
44578;SDS011;37422;51.402;0.016;2022-12-18T18:41:39;13.85;;;5.53;;
44578;SDS011;37422;51.402;0.016;2022-12-18T18:45:02;9.68;;;4.50;;
44578;SDS011;37422;51.402;0.016;2022-12-18T18:49:22;10.98;;;5.15;;
44578;SDS011;37422;51.402;0.016;2022-12-18T18:56:43;11.68;;;6.18;;
44578;SDS011;37422;51.402;0.016;2022-12-18T18:59:51;12.47;;;5.37;;
44578;SDS011;37422;51.402;0.016;2022-12-18T19:06:17;12.60;;;5.72;;
44578;SDS011;37422;51.402;0.016;2022-12-18T19:14:10;13.35;;;6.10;;
44578;SDS011;37422;51.402;0.016;2022-12-18T19:16:46;13.45;;;6.20;;
44578;SDS011;37422;51.402;0.016;2022-12-18T19:19:41;11.65;;;5.60;;
44578;SDS011;37422;51.402;0.016;2022-12-18T19:26:19;10.95;;;4.90;;
44578;SDS011;37422;51.402;0.016;2022-12-18T19:30:25;18.42;;;6.10;;
44578;SDS011;37422;51.402;0.016;2022-12-18T19:37:07;12.65;;;5.85;;
44578;SDS011;37422;51.402;0.016;2022-12-18T19:39:37;13.43;;;5.70;;
44578;SDS011;37422;51.402;0.016;2022-12-18T19:42:09;12.60;;;6.88;;
44578;SDS011;37422;51.402;0.016;2022-12-18T19:44:44;9.65;;;5.25;;
44578;SDS011;37422;51.402;0.016;2022-12-18T19:47:39;11.35;;;5.47;;
44578;SDS011;37422;51.402;0.016;2022-12-18T19:50:16;10.73;;;5.80;;
44578;SDS011;37422;51.402;0.016;2022-12-18T19:52:50;13.55;;;6.20;;
44578;SDS011;37422;51.402;0.016;2022-12-18T19:55:24;13.13;;;5.47;;
44578;SDS011;37422;51.402;0.016;2022-12-18T19:58:01;11.35;;;5.53;;
44578;SDS011;37422;51.402;0.016;2022-12-18T20:00:28;12.35;;;6.32;;
44578;SDS011;37422;51.402;0.016;2022-12-18T20:02:57;18.83;;;6.47;;
44578;SDS011;37422;51.402;0.016;2022-12-18T20:05:38;13.27;;;6.75;;
44578;SDS011;37422;51.402;0.016;2022-12-18T20:10:37;12.85;;;6.32;;
44578;SDS011;37422;51.402;0.016;2022-12-18T20:13:23;11.63;;;6.10;;
44578;SDS011;37422;51.402;0.016;2022-12-18T20:16:01;9.73;;;5.22;;
44578;SDS011;37422;51.402;0.016;2022-12-18T20:18:33;10.98;;;5.70;;
44578;SDS011;37422;51.402;0.016;2022-12-18T20:21:01;13.65;;;6.45;;
44578;SDS011;37422;51.402;0.016;2022-12-18T20:23:29;11.02;;;5.13;;
44578;SDS011;37422;51.402;0.016;2022-12-18T20:26:03;13.77;;;6.03;;
44578;SDS011;37422;51.402;0.016;2022-12-18T20:31:02;14.05;;;6.40;;
44578;SDS011;37422;51.402;0.016;2022-12-18T20:33:34;14.30;;;5.30;;
44578;SDS011;37422;51.402;0.016;2022-12-18T20:36:06;13.13;;;5.45;;
44578;SDS011;37422;51.402;0.016;2022-12-18T20:38:48;13.73;;;6.47;;
44578;SDS011;37422;51.402;0.016;2022-12-18T20:41:24;13.35;;;6.15;;
44578;SDS011;37422;51.402;0.016;2022-12-18T20:43:56;11.10;;;5.75;;
44578;SDS011;37422;51.402;0.016;2022-12-18T20:46:24;11.70;;;5.60;;
44578;SDS011;37422;51.402;0.016;2022-12-18T20:48:53;14.32;;;5.85;;
44578;SDS011;37422;51.402;0.016;2022-12-18T20:51:42;14.80;;;5.23;;
44578;SDS011;37422;51.402;0.016;2022-12-18T20:54:10;9.45;;;4.63;;
44578;SDS011;37422;51.402;0.016;2022-12-18T20:56:40;8.40;;;3.88;;
44578;SDS011;37422;51.402;0.016;2022-12-18T20:59:09;11.93;;;4.70;;
44578;SDS011;37422;51.402;0.016;2022-12-18T21:01:48;14.63;;;5.38;;
44578;SDS011;37422;51.402;0.016;2022-12-18T21:04:27;13.35;;;5.40;;
44578;SDS011;37422;51.402;0.016;2022-12-18T21:07:02;10.65;;;5.18;;